Time;durP1;ratioP1;P1;durP2;ratioP2;P2;SDS_P1;SDS_P2;PMS_P1;PMS_P2;Temp;Humidity;BMP_temperature;BMP_pressure;BME280_temperature;BME280_humidity;BME280_pressure;Samples;Min_cycle;Max_cycle;Signal;HPM_P1;HPM_P2
2022/05/03 00:02:39;;;;;;;8.93;7.00;;;5.80;99.90;;;;;;8212668;28;20190;-69
2022/05/03 00:06:59;;;;;;;7.87;7.00;;;5.70;74.90;;;;;;8214281;28;20270;-74
2022/05/03 00:11:31;;;;;;;8.10;6.53;;;5.60;1.00;;;;;;8216324;28;20199;-69
2022/05/03 00:15:35;;;;;;;7.50;6.33;;;5.50;99.90;;;;;;8210966;28;20223;-69
2022/05/03 00:19:37;;;;;;;9.80;7.27;;;5.40;26.30;;;;;;8231885;28;20226;-74
2022/05/03 00:23:38;;;;;;;9.90;6.93;;;5.40;1.00;;;;;;8232887;28;20195;-69
2022/05/03 00:27:39;;;;;;;8.87;6.63;;;5.40;99.90;;;;;;8209701;28;20200;-69
2022/05/03 00:31:41;;;;;;;8.80;7.40;;;5.30;1.00;;;;;;8214480;28;20223;-69
2022/05/03 00:35:43;;;;;;;10.53;7.13;;;5.20;1.00;;;;;;8235180;28;20288;-69
2022/05/03 00:39:44;;;;;;;9.90;7.50;;;5.20;99.90;;;;;;8230396;28;20226;-69
2022/05/03 00:44:02;;;;;;;9.00;7.23;;;5.20;99.90;;;;;;8214333;28;20194;-68
2022/05/03 00:48:24;;;;;;;8.30;6.87;;;5.10;1.00;;;;;;8230765;28;20282;-69
2022/05/03 00:52:43;;;;;;;10.37;6.70;;;5.00;1.00;;;;;;8215854;28;20180;-69
2022/05/03 00:56:56;;;;;;;10.63;7.23;;;4.90;99.90;;;;;;8218224;28;20212;-69
2022/05/03 01:01:05;;;;;;;10.90;8.17;;;4.80;1.00;;;;;;8233106;28;20248;-69
2022/05/03 01:05:10;;;;;;;9.53;7.57;;;4.80;1.00;;;;;;8213388;28;20183;-68
2022/05/03 01:09:11;;;;;;;10.37;7.17;;;4.80;1.00;;;;;;8232529;28;20191;-69
2022/05/03 01:13:28;;;;;;;9.07;7.10;;;4.80;1.00;;;;;;8229016;28;20192;-69
2022/05/03 01:17:54;;;;;;;11.03;7.13;;;4.70;1.00;;;;;;8211079;28;20236;-69
2022/05/03 01:22:22;;;;;;;9.60;7.23;;;4.70;14.40;;;;;;8214290;28;20197;-70
2022/05/03 01:26:38;;;;;;;8.80;6.80;;;4.70;98.30;;;;;;8210150;28;20267;-69
2022/05/03 01:30:45;;;;;;;9.13;6.43;;;4.60;99.40;;;;;;8213097;28;20203;-69
2022/05/03 01:34:47;;;;;;;9.70;7.03;;;4.50;99.90;;;;;;8214551;28;20250;-70
2022/05/03 01:39:24;;;;;;;8.47;6.50;;;4.50;99.90;;;;;;8233019;28;20219;-69
2022/05/03 01:44:07;;;;;;;8.93;6.50;;;4.40;99.90;;;;;;8212874;28;20180;-69
2022/05/03 01:48:17;;;;;;;7.23;6.13;;;4.40;99.90;;;;;;8217681;28;20265;-69
2022/05/03 01:52:21;;;;;;;9.53;7.03;;;4.30;99.90;;;;;;8228718;28;20232;-69
2022/05/03 01:56:55;;;;;;;9.13;7.43;;;4.30;99.90;;;;;;8217494;28;20185;-69
2022/05/03 02:01:04;;;;;;;9.90;8.23;;;4.30;99.90;;;;;;8229583;28;20188;-69
2022/05/03 02:05:07;;;;;;;8.73;7.03;;;4.30;99.90;;;;;;8209232;28;20185;-69
2022/05/03 02:09:09;;;;;;;9.33;7.50;;;4.20;99.90;;;;;;8214935;28;20193;-69
2022/05/03 02:18:21;;;;;;;8.03;6.60;;;4.20;99.90;;;;;;8209741;28;20278;-69
2022/05/03 02:22:31;;;;;;;10.63;7.20;;;4.10;99.90;;;;;;8220444;28;20193;-68
2022/05/03 02:26:43;;;;;;;9.60;6.67;;;3.90;99.90;;;;;;8212531;28;20188;-69
2022/05/03 02:30:47;;;;;;;9.30;7.67;;;3.90;99.90;;;;;;8232706;28;20200;-70
2022/05/03 02:35:09;;;;;;;10.37;7.77;;;3.90;99.90;;;;;;8221652;28;20188;-69
2022/05/03 02:39:12;;;;;;;8.50;6.97;;;3.90;99.90;;;;;;8215154;28;20215;-69
2022/05/03 02:43:16;;;;;;;9.07;7.23;;;3.90;99.90;;;;;;8220021;28;20191;-69
2022/05/03 02:47:30;;;;;;;9.20;7.23;;;3.80;99.90;;;;;;8217415;28;20189;-69
2022/05/03 02:51:51;;;;;;;9.10;6.93;;;3.70;99.90;;;;;;8216670;28;20201;-70
2022/05/03 02:56:34;;;;;;;9.10;6.97;;;3.60;99.90;;;;;;8213571;28;20366;-69
2022/05/03 03:05:12;;;;;;;8.07;5.90;;;3.40;99.90;;;;;;8215624;28;20247;-70
2022/05/03 03:09:24;;;;;;;9.30;6.53;;;3.40;99.90;;;;;;8234523;28;20216;-70
2022/05/03 03:13:40;;;;;;;9.60;7.23;;;3.30;99.90;;;;;;8233417;28;20201;-70
2022/05/03 03:17:43;;;;;;;11.60;8.27;;;3.40;99.90;;;;;;8233259;28;20308;-69
2022/05/03 03:21:48;;;;;;;12.13;7.57;;;3.40;99.90;;;;;;8227909;28;20189;-69
2022/05/03 03:25:49;;;;;;;8.43;6.23;;;3.40;99.90;;;;;;8217701;28;20188;-69
2022/05/03 03:29:55;;;;;;;9.17;6.60;;;3.30;99.90;;;;;;8229903;28;20220;-69
2022/05/03 03:33:57;;;;;;;9.80;6.57;;;3.30;99.90;;;;;;8231968;28;20467;-69
2022/05/03 03:38:01;;;;;;;9.93;7.30;;;3.30;99.90;;;;;;8231566;28;20319;-70
2022/05/03 03:42:03;;;;;;;8.93;6.57;;;3.30;99.90;;;;;;8228640;28;20292;-70
2022/05/03 03:46:03;;;;;;;8.43;6.57;;;3.40;99.90;;;;;;8219162;28;20188;-69
2022/05/03 03:50:05;;;;;;;9.33;7.03;;;3.40;99.90;;;;;;8217853;28;20262;-69
2022/05/03 03:54:07;;;;;;;10.10;6.93;;;3.40;99.90;;;;;;8234487;28;20188;-69
2022/05/03 03:58:08;;;;;;;9.77;6.93;;;3.50;99.90;;;;;;8231655;28;20200;-69
2022/05/03 04:02:09;;;;;;;10.43;6.97;;;3.70;99.90;;;;;;8218955;28;20191;-69
2022/05/03 04:06:11;;;;;;;10.10;8.30;;;4.00;99.90;;;;;;8216631;28;20268;-69
2022/05/03 04:10:12;;;;;;;10.10;6.93;;;4.70;99.90;;;;;;8218228;28;20188;-70
2022/05/03 04:14:13;;;;;;;10.27;7.93;;;5.40;99.90;;;;;;8232914;28;20187;-69
2022/05/03 04:18:14;;;;;;;10.33;7.93;;;6.00;99.90;;;;;;8217270;28;20211;-69
2022/05/03 04:22:32;;;;;;;9.63;7.87;;;6.50;99.90;;;;;;8213164;28;20286;-69
2022/05/03 04:26:34;;;;;;;8.53;6.67;;;6.90;99.90;;;;;;8216918;28;20185;-70
2022/05/03 04:30:34;;;;;;;9.07;6.80;;;7.40;99.90;;;;;;8215187;28;20200;-70
2022/05/03 04:34:35;;;;;;;8.87;7.57;;;7.70;99.90;;;;;;8228167;28;20196;-70
2022/05/03 04:38:36;;;;;;;8.93;7.10;;;8.10;99.90;;;;;;8216566;28;20220;-69
2022/05/03 04:42:36;;;;;;;10.13;6.63;;;8.40;1.00;;;;;;8231931;28;20659;-70
2022/05/03 04:46:37;;;;;;;8.40;6.80;;;8.80;99.90;;;;;;8216850;28;20200;-70
2022/05/03 04:50:38;;;;;;;10.03;6.80;;;9.00;99.90;;;;;;8228922;28;20189;-70
2022/05/03 04:54:39;;;;;;;10.60;6.97;;;9.30;99.90;;;;;;8215145;28;20295;-70
2022/05/03 04:58:40;;;;;;;7.27;6.23;;;9.40;99.90;;;;;;8227306;28;20224;-70
2022/05/03 05:02:40;;;;;;;9.27;6.90;;;9.30;99.90;;;;;;8231329;28;20196;-70
2022/05/03 05:06:41;;;;;;;9.80;7.50;;;9.20;99.90;;;;;;8226511;28;20195;-70
2022/05/03 05:10:42;;;;;;;10.10;6.93;;;9.10;99.90;;;;;;8214198;28;20310;-70
2022/05/03 05:14:43;;;;;;;8.60;6.60;;;8.90;99.90;;;;;;8230352;28;20184;-70
2022/05/03 05:18:44;;;;;;;10.60;8.00;;;8.80;99.90;;;;;;8230049;28;20310;-71
2022/05/03 05:22:45;;;;;;;11.00;8.23;;;8.90;1.00;;;;;;8231177;28;20247;-71
2022/05/03 05:26:46;;;;;;;9.73;7.57;;;8.90;1.00;;;;;;8210066;28;20199;-70
2022/05/03 05:30:49;;;;;;;9.53;7.30;;;9.00;1.00;;;;;;8217977;28;20204;-71
2022/05/03 05:34:49;;;;;;;10.10;7.00;;;9.30;1.00;;;;;;8230947;28;20215;-70
2022/05/03 05:38:50;;;;;;;8.93;7.13;;;9.70;1.00;;;;;;8220475;28;20222;-71
2022/05/03 05:42:51;;;;;;;11.90;9.07;;;10.00;1.00;;;;;;8219661;28;20263;-71
2022/05/03 05:46:54;;;;;;;15.27;9.37;;;10.30;99.90;;;;;;8234459;28;20188;-71
2022/05/03 05:50:55;;;;;;;15.50;12.07;;;10.50;3.60;;;;;;8227048;28;20199;-70
2022/05/03 05:54:56;;;;;;;13.67;11.40;;;10.80;1.00;;;;;;8225613;28;20184;-71
2022/05/03 05:58:57;;;;;;;14.43;10.53;;;11.20;1.00;;;;;;8213967;28;20222;-70
2022/05/03 06:02:58;;;;;;;14.43;9.13;;;11.60;99.90;;;;;;8214805;28;20181;-66
2022/05/03 06:06:59;;;;;;;11.37;7.20;;;12.10;99.90;;;;;;8221106;28;20186;-66
2022/05/03 06:11:01;;;;;;;9.93;6.63;;;12.50;1.00;;;;;;8235727;28;20207;-66
2022/05/03 06:15:02;;;;;;;11.53;6.90;;;12.90;99.90;;;;;;8222923;28;20181;-71
2022/05/03 06:19:03;;;;;;;8.00;6.00;;;13.30;99.90;;;;;;8221063;28;20227;-65
2022/05/03 06:23:04;;;;;;;10.07;5.43;;;13.70;99.90;;;;;;8219101;28;20263;-70
2022/05/03 06:27:05;;;;;;;5.83;5.10;;;14.00;99.90;;;;;;8223260;28;20210;-66
2022/05/03 06:31:07;;;;;;;8.00;5.43;;;14.30;99.90;;;;;;8216191;28;20216;-68
2022/05/03 06:35:08;;;;;;;11.43;5.63;;;14.50;99.90;;;;;;8222246;28;20543;-65
2022/05/03 06:39:08;;;;;;;6.57;5.33;;;14.70;94.80;;;;;;8215757;28;20227;-69
2022/05/03 06:43:10;;;;;;;6.47;4.77;;;14.90;48.70;;;;;;8229403;28;20268;-66
2022/05/03 06:47:11;;;;;;;10.63;5.30;;;15.20;51.60;;;;;;8217211;28;20557;-69
2022/05/03 06:51:11;;;;;;;10.00;4.97;;;15.30;22.90;;;;;;8231206;28;20267;-65
2022/05/03 06:55:12;;;;;;;7.17;5.50;;;15.40;14.10;;;;;;8219272;28;20185;-66
2022/05/03 06:59:13;;;;;;;9.73;6.13;;;15.70;11.70;;;;;;8232175;28;20224;-68
2022/05/03 07:03:14;;;;;;;7.70;5.67;;;15.90;26.90;;;;;;8238724;28;20267;-67
2022/05/03 07:07:15;;;;;;;8.23;5.30;;;15.90;22.60;;;;;;8234761;28;20223;-68
2022/05/03 07:11:15;;;;;;;7.33;4.80;;;16.10;20.20;;;;;;8233747;28;20189;-68
2022/05/03 07:15:18;;;;;;;7.00;4.63;;;16.20;12.90;;;;;;8233467;28;20263;-67
2022/05/03 07:23:38;;;;;;;5.93;4.17;;;16.50;1.00;;;;;;8218027;28;20255;-67
2022/05/03 07:27:39;;;;;;;6.37;4.10;;;16.70;1.00;;;;;;8214277;28;20307;-67
2022/05/03 07:31:43;;;;;;;5.77;3.67;;;16.80;1.00;;;;;;8215553;28;20207;-66
2022/05/03 07:35:44;;;;;;;5.83;3.67;;;17.00;1.00;;;;;;8217390;28;20893;-67
2022/05/03 07:39:44;;;;;;;6.37;4.17;;;17.20;1.00;;;;;;8217639;28;20205;-67
2022/05/03 07:43:45;;;;;;;4.50;3.70;;;17.40;1.00;;;;;;8223846;28;20247;-67
2022/05/03 07:47:47;;;;;;;3.97;3.30;;;17.50;1.00;;;;;;8217823;28;20204;-67
2022/05/03 07:51:48;;;;;;;8.80;3.73;;;17.70;1.00;;;;;;8215594;28;20187;-68
2022/05/03 07:55:49;;;;;;;5.13;3.40;;;17.90;1.00;;;;;;8235545;28;20189;-67
2022/05/03 07:59:55;;;;;;;5.83;2.80;;;18.00;1.00;;;;;;8233173;28;20198;-67
2022/05/03 08:03:55;;;;;;;4.80;3.63;;;18.20;1.00;;;;;;8214129;28;20228;-68
2022/05/03 08:07:56;;;;;;;5.07;3.50;;;18.30;1.00;;;;;;8218789;28;20227;-67
2022/05/03 08:11:57;;;;;;;4.20;3.53;;;18.40;1.00;;;;;;8216624;28;20184;-66
2022/05/03 08:15:58;;;;;;;3.93;3.23;;;18.20;1.00;;;;;;8233240;28;20275;-66
2022/05/03 08:19:59;;;;;;;4.50;3.40;;;18.30;1.00;;;;;;8232527;28;20302;-67
2022/05/03 08:24:00;;;;;;;5.13;3.20;;;18.50;1.00;;;;;;8216760;28;20188;-66
2022/05/03 08:28:00;;;;;;;3.67;3.00;;;18.70;1.00;;;;;;8214865;28;20212;-65
2022/05/03 08:32:02;;;;;;;6.73;3.93;;;19.00;1.00;;;;;;8216005;28;20184;-65
2022/05/03 08:36:04;;;;;;;6.13;3.20;;;19.20;1.00;;;;;;8212984;28;20193;-65
2022/05/03 08:44:25;;;;;;;4.70;3.90;;;19.70;1.00;;;;;;8219781;28;20195;-66
2022/05/03 08:48:32;;;;;;;3.70;3.40;;;19.50;1.00;;;;;;8228040;28;20212;-66
2022/05/03 08:52:54;;;;;;;3.33;3.03;;;19.30;1.00;;;;;;8212517;28;20191;-66
2022/05/03 08:56:56;;;;;;;5.13;3.40;;;19.40;1.00;;;;;;8233484;28;20251;-65
2022/05/03 09:00:56;;;;;;;3.70;3.30;;;19.60;1.00;;;;;;8216906;28;20250;-66
2022/05/03 09:04:57;;;;;;;4.97;3.30;;;20.00;1.00;;;;;;8222813;28;20243;-66
2022/05/03 09:09:00;;;;;;;3.80;3.30;;;20.70;1.00;;;;;;8232354;28;20231;-66
2022/05/03 09:13:22;;;;;;;6.93;3.67;;;21.40;1.00;;;;;;8229495;28;20196;-66
2022/05/03 09:17:43;;;;;;;3.63;2.97;;;21.90;1.00;;;;;;8214337;28;20191;-67
2022/05/03 09:26:11;;;;;;;3.07;2.60;;;22.00;1.00;;;;;;8214566;28;20199;-66
2022/05/03 09:30:12;;;;;;;3.30;2.80;;;22.00;1.00;;;;;;8229845;28;20232;-67
2022/05/03 09:34:25;;;;;;;4.03;3.20;;;22.40;1.00;;;;;;8224924;28;20196;-66
2022/05/03 09:38:26;;;;;;;4.43;2.97;;;22.60;1.00;;;;;;8216825;28;20212;-66
2022/05/03 09:42:28;;;;;;;4.23;3.07;;;21.50;1.00;;;;;;8236105;28;20223;-68
2022/05/03 09:46:30;;;;;;;3.77;2.87;;;21.00;1.00;;;;;;8216502;28;20188;-66
2022/05/03 09:50:57;;;;;;;4.53;3.10;;;20.80;1.00;;;;;;8237965;28;20208;-67
2022/05/03 09:55:07;;;;;;;4.60;3.60;;;20.60;1.00;;;;;;8220510;28;20201;-65
2022/05/03 09:59:09;;;;;;;4.87;3.80;;;20.30;1.00;;;;;;8217730;28;20189;-65
2022/05/03 10:03:10;;;;;;;4.63;3.33;;;20.00;1.00;;;;;;8214704;28;20193;-66
2022/05/03 10:07:12;;;;;;;5.60;4.07;;;20.30;1.00;;;;;;8214074;28;20192;-66
2022/05/03 10:11:13;;;;;;;5.07;2.90;;;20.50;1.00;;;;;;8233404;28;20208;-65
2022/05/03 10:20:35;;;;;;;3.97;2.80;;;20.60;1.00;;;;;;8232043;28;20243;-66
2022/05/03 10:24:10;;;;;;;4.70;3.20;;;21.00;1.00;;;;;;8219270;28;20271;-66
2022/05/03 10:28:11;;;;;;;3.40;3.10;;;21.30;1.00;;;;;;8222510;28;20219;-65
2022/05/03 10:32:14;;;;;;;5.90;3.10;;;21.40;1.00;;;;;;8219016;28;20200;-65
2022/05/03 10:36:30;;;;;;;5.40;3.10;;;21.20;1.00;;;;;;8236344;28;20185;-65
2022/05/03 10:40:39;;;;;;;4.50;3.43;;;20.40;1.00;;;;;;8220076;28;20220;-66
2022/05/03 10:44:53;;;;;;;5.83;2.97;;;20.00;1.00;;;;;;8222646;28;20193;-66
2022/05/03 10:49:11;;;;;;;5.40;3.60;;;20.10;1.00;;;;;;8223403;28;20226;-66
2022/05/03 10:53:12;;;;;;;4.20;3.33;;;19.60;1.00;;;;;;8217620;28;20181;-65
2022/05/03 10:57:14;;;;;;;5.23;3.57;;;19.00;1.00;;;;;;8217548;28;20189;-66
2022/05/03 11:01:21;;;;;;;4.23;3.63;;;19.10;1.00;;;;;;8214528;28;20191;-66
2022/05/03 11:05:22;;;;;;;6.17;3.37;;;19.70;1.00;;;;;;8230356;28;20287;-67
2022/05/03 11:09:34;;;;;;;4.63;3.20;;;20.30;1.00;;;;;;8212331;28;20216;-67
2022/05/03 11:13:42;;;;;;;4.23;3.10;;;20.50;1.00;;;;;;8234015;28;20200;-67
2022/05/03 11:17:43;;;;;;;3.30;3.00;;;21.30;1.00;;;;;;8224566;28;20188;-67
2022/05/03 11:21:45;;;;;;;3.57;2.77;;;22.20;1.00;;;;;;8233657;28;20192;-66
2022/05/03 11:25:48;;;;;;;4.30;3.20;;;23.00;1.00;;;;;;8236243;28;20224;-67
2022/05/03 11:30:11;;;;;;;4.40;3.03;;;23.50;1.00;;;;;;8215683;28;20213;-67
2022/05/03 11:34:12;;;;;;;3.10;2.80;;;23.60;1.00;;;;;;8229790;28;20188;-67
2022/05/03 11:38:13;;;;;;;4.50;3.10;;;24.00;1.00;;;;;;8231736;28;20190;-66
2022/05/03 11:42:13;;;;;;;5.63;3.23;;;24.20;1.00;;;;;;8228334;28;20212;-66
2022/05/03 11:46:16;;;;;;;4.80;3.10;;;24.20;1.00;;;;;;8218834;28;20263;-66
2022/05/03 11:59:00;;;;;;;8.00;5.50;;;20.90;1.00;;;;;;8218235;28;20287;-66
2022/05/03 12:03:01;;;;;;;4.83;3.50;;;20.20;1.00;;;;;;8220196;28;20193;-66
2022/05/03 12:07:02;;;;;;;6.17;3.67;;;19.90;1.00;;;;;;8231098;28;20184;-66
2022/05/03 12:11:02;;;;;;;6.40;4.00;;;20.00;1.00;;;;;;8220895;28;20224;-66
2022/05/03 12:15:18;;;;;;;5.07;4.57;;;19.40;1.00;;;;;;8214344;28;20249;-66
2022/05/03 12:19:22;;;;;;;7.00;4.40;;;19.10;1.00;;;;;;8236398;28;20192;-65
2022/05/03 12:23:32;;;;;;;5.53;4.80;;;18.90;1.00;;;;;;8443738;27;20590;-80
2022/05/03 12:27:33;;;;;;;5.17;4.40;;;18.80;1.00;;;;;;8425567;28;20191;-78
2022/05/03 12:31:40;;;;;;;4.57;4.07;;;18.80;1.00;;;;;;8423462;28;20278;-78
2022/05/03 12:35:47;;;;;;;4.60;4.20;;;18.90;1.00;;;;;;8450079;28;20264;-80
2022/05/03 12:39:47;;;;;;;4.93;3.57;;;19.10;1.00;;;;;;8440328;28;20255;-80
2022/05/03 12:44:09;;;;;;;4.10;3.80;;;19.50;1.00;;;;;;8426433;28;20183;-80
2022/05/03 12:48:10;;;;;;;7.70;4.23;;;19.90;1.00;;;;;;8424514;28;20172;-80
2022/05/03 12:52:12;;;;;;;4.93;4.40;;;20.10;1.00;;;;;;8432569;28;20187;-79
2022/05/03 13:00:33;;;;;;;5.93;4.03;;;20.20;1.00;;;;;;8437392;28;20596;-79
2022/05/03 13:04:34;;;;;;;5.13;3.50;;;20.10;1.00;;;;;;8426695;28;20195;-80
2022/05/03 13:08:35;;;;;;;4.73;4.00;;;20.10;1.00;;;;;;8427880;28;20184;-79
2022/05/03 13:12:36;;;;;;;5.70;4.30;;;20.60;1.00;;;;;;8419772;28;20211;-80
2022/05/03 13:16:37;;;;;;;8.40;3.90;;;21.30;1.00;;;;;;8424260;28;20248;-78
2022/05/03 13:20:39;;;;;;;6.43;4.10;;;21.40;1.00;;;;;;8429172;28;20211;-80
2022/05/03 13:24:40;;;;;;;4.50;4.07;;;20.80;1.00;;;;;;8420693;28;20184;-80
2022/05/03 13:28:41;;;;;;;4.30;3.60;;;21.00;1.00;;;;;;8423698;28;20254;-79
2022/05/03 13:32:42;;;;;;;8.93;4.83;;;20.80;1.00;;;;;;8417540;28;20203;-80
2022/05/03 13:41:02;;;;;;;6.30;3.27;;;21.40;1.00;;;;;;8413098;28;20261;-79
2022/05/03 13:45:03;;;;;;;3.93;3.23;;;21.60;1.00;;;;;;8404316;28;20315;-79
2022/05/03 13:49:05;;;;;;;5.87;3.97;;;21.40;1.00;;;;;;8397653;28;20224;-80
2022/05/03 13:53:09;;;;;;;4.40;3.97;;;20.90;1.00;;;;;;8401220;28;20184;-79
2022/05/03 13:57:10;;;;;;;4.93;3.83;;;20.70;1.00;;;;;;8395645;28;20184;-80
2022/05/03 14:01:10;;;;;;;7.37;4.00;;;20.50;1.00;;;;;;8401062;28;20232;-81
2022/05/03 14:05:11;;;;;;;5.67;3.87;;;20.40;1.00;;;;;;8394201;28;20180;-79
2022/05/03 14:09:12;;;;;;;5.90;3.40;;;20.20;1.00;;;;;;8401144;28;20181;-79
2022/05/03 14:13:13;;;;;;;5.43;3.83;;;20.20;1.00;;;;;;8396123;28;20258;-78
2022/05/03 14:17:14;;;;;;;8.83;4.10;;;19.60;1.00;;;;;;8401919;28;20184;-80
2022/05/03 14:21:15;;;;;;;8.10;5.87;;;19.40;1.00;;;;;;8422911;28;20217;-79
2022/05/03 14:25:15;;;;;;;5.87;4.20;;;19.80;1.00;;;;;;8396445;28;20196;-79
2022/05/03 14:29:16;;;;;;;4.80;3.77;;;20.20;1.00;;;;;;8404322;28;20189;-80
2022/05/03 14:33:17;;;;;;;4.10;3.70;;;20.70;1.00;;;;;;8396977;28;20227;-79
2022/05/03 14:37:18;;;;;;;6.33;4.20;;;21.00;1.00;;;;;;8405143;28;20191;-79
2022/05/03 14:41:19;;;;;;;5.60;4.03;;;20.70;1.00;;;;;;8393493;28;20350;-80
2022/05/03 14:45:21;;;;;;;4.33;3.93;;;20.60;1.00;;;;;;8400525;28;20188;-79
2022/05/03 14:49:22;;;;;;;4.30;3.87;;;20.30;1.00;;;;;;8400393;28;20184;-80
2022/05/03 14:53:23;;;;;;;5.23;3.83;;;20.00;1.00;;;;;;8399185;28;20188;-80
2022/05/03 15:06:03;;;;;;;6.23;4.47;;;19.70;1.00;;;;;;8415942;28;20274;-79
2022/05/03 15:10:05;;;;;;;7.03;3.77;;;19.60;1.00;;;;;;8392558;28;20551;-79
2022/05/03 15:14:06;;;;;;;5.03;3.83;;;19.80;1.00;;;;;;8398057;28;20188;-79
2022/05/03 15:18:07;;;;;;;5.17;4.17;;;19.90;1.00;;;;;;8397233;28;20302;-80
2022/05/03 15:22:08;;;;;;;4.93;3.97;;;20.00;1.00;;;;;;8406098;28;20257;-78
2022/05/03 15:26:10;;;;;;;5.03;3.80;;;19.80;1.00;;;;;;8397474;28;20547;-79
2022/05/03 15:30:11;;;;;;;4.83;4.00;;;19.60;1.00;;;;;;8399248;28;20502;-79
2022/05/03 15:34:12;;;;;;;4.33;3.90;;;19.30;1.00;;;;;;8392851;28;20195;-79
2022/05/03 15:38:13;;;;;;;6.47;4.53;;;19.10;1.00;;;;;;8392279;28;20193;-79
2022/05/03 15:42:14;;;;;;;4.47;4.03;;;18.90;1.00;;;;;;8396550;28;20235;-79
2022/05/03 15:46:14;;;;;;;7.60;4.27;;;19.10;1.00;;;;;;8400964;28;20195;-79
2022/05/03 15:50:17;;;;;;;5.53;4.80;;;19.20;1.00;;;;;;8399441;28;20199;-79
2022/05/03 15:54:18;;;;;;;4.90;4.23;;;19.30;1.00;;;;;;8409235;28;20200;-78
2022/05/03 15:58:19;;;;;;;5.47;4.50;;;19.50;1.00;;;;;;8404792;28;20369;-78
2022/05/03 16:02:20;;;;;;;7.43;4.73;;;19.30;1.00;;;;;;8395784;28;20340;-80
2022/05/03 16:06:21;;;;;;;4.60;4.20;;;19.30;1.00;;;;;;8393793;28;20475;-79
2022/05/03 16:10:22;;;;;;;5.73;5.00;;;19.50;1.00;;;;;;8385154;28;20223;-78
2022/05/03 16:14:24;;;;;;;6.10;4.73;;;19.70;1.00;;;;;;8406898;28;20180;-79
2022/05/03 16:18:25;;;;;;;4.73;4.20;;;19.90;1.00;;;;;;8392386;28;20196;-79
2022/05/03 16:22:26;;;;;;;9.90;4.53;;;19.70;1.00;;;;;;8389418;28;20212;-79
2022/05/03 16:26:27;;;;;;;5.00;4.50;;;19.80;1.00;;;;;;8393036;28;20189;-80
2022/05/03 16:30:28;;;;;;;4.37;3.97;;;19.50;1.00;;;;;;8396375;28;20196;-79
2022/05/03 16:34:29;;;;;;;4.90;4.10;;;19.10;1.00;;;;;;8386895;28;20511;-79
2022/05/03 16:42:49;;;;;;;7.07;5.33;;;18.80;1.00;;;;;;8404218;28;20251;-79
2022/05/03 16:46:50;;;;;;;5.30;4.80;;;18.80;1.00;;;;;;8400187;28;20184;-79
2022/05/03 16:50:51;;;;;;;6.13;4.50;;;18.80;1.00;;;;;;8394409;28;20212;-79
2022/05/03 16:54:53;;;;;;;6.13;4.57;;;18.70;1.00;;;;;;8380742;28;20284;-79
2022/05/03 16:58:54;;;;;;;7.77;4.90;;;18.50;1.00;;;;;;8389102;28;20258;-78
2022/05/03 17:02:55;;;;;;;10.13;6.03;;;18.40;1.00;;;;;;8389726;28;20208;-79
2022/05/03 17:06:56;;;;;;;9.30;6.10;;;18.30;1.00;;;;;;8389618;28;20207;-79
2022/05/03 17:10:59;;;;;;;44.87;17.23;;;18.30;1.00;;;;;;8405649;28;20506;-79
2022/05/03 17:15:00;;;;;;;14.50;7.67;;;18.30;1.00;;;;;;8419392;28;20188;-80
2022/05/03 17:19:01;;;;;;;6.83;4.67;;;18.40;1.00;;;;;;8398465;28;20218;-79
2022/05/03 17:23:03;;;;;;;20.27;9.83;;;18.50;1.00;;;;;;8410896;28;20233;-79
2022/05/03 17:27:05;;;;;;;6.90;4.80;;;18.50;1.00;;;;;;8400017;28;20189;-78
2022/05/03 17:31:06;;;;;;;4.57;4.17;;;18.50;1.00;;;;;;8403267;28;20189;-79
2022/05/03 17:35:08;;;;;;;6.80;5.10;;;18.40;1.00;;;;;;8400198;28;20198;-81
2022/05/03 17:39:09;;;;;;;5.60;4.27;;;18.50;1.00;;;;;;8402304;28;20210;-79
2022/05/03 17:43:10;;;;;;;7.37;5.97;;;18.50;1.00;;;;;;8401562;28;20208;-80
2022/05/03 17:47:11;;;;;;;6.33;4.90;;;18.60;1.00;;;;;;8408414;28;20188;-79
2022/05/03 17:51:11;;;;;;;7.60;6.67;;;18.40;1.00;;;;;;8405164;28;20199;-79
2022/05/03 17:55:12;;;;;;;10.33;9.33;;;18.20;1.00;;;;;;8389845;28;20185;-78
2022/05/03 17:59:14;;;;;;;13.00;11.20;;;18.00;1.00;;;;;;8407626;28;20188;-78
2022/05/03 18:03:16;;;;;;;10.47;8.80;;;17.80;1.00;;;;;;8397652;28;20212;-79
2022/05/03 18:07:19;;;;;;;9.77;8.70;;;17.70;1.00;;;;;;8391398;28;20233;-77
2022/05/03 18:11:20;;;;;;;8.90;8.00;;;17.40;1.00;;;;;;8396189;28;20189;-78
2022/05/03 18:15:21;;;;;;;7.93;6.83;;;17.10;1.00;;;;;;8401864;28;20192;-78
2022/05/03 18:19:23;;;;;;;7.57;6.80;;;16.70;1.00;;;;;;8397425;28;20217;-78
2022/05/03 18:23:24;;;;;;;8.07;6.70;;;16.30;1.00;;;;;;8391159;28;20279;-79
2022/05/03 18:27:25;;;;;;;7.77;5.77;;;15.80;1.00;;;;;;8382768;28;22162;-82
2022/05/03 18:31:27;;;;;;;6.70;5.80;;;15.30;32.20;;;;;;8375572;28;20237;-80
2022/05/03 18:35:28;;;;;;;6.00;5.23;;;14.90;97.60;;;;;;8374007;28;20202;-81
2022/05/03 18:39:29;;;;;;;13.70;6.37;;;14.60;99.90;;;;;;8354757;28;20213;-79
2022/05/03 18:43:30;;;;;;;18.43;12.70;;;14.30;99.90;;;;;;8359773;28;20311;-80
2022/05/03 18:47:31;;;;;;;16.67;12.00;;;14.10;99.90;;;;;;8361091;28;20235;-79
2022/05/03 18:51:32;;;;;;;14.63;10.80;;;13.90;99.90;;;;;;8361680;28;20551;-80
2022/05/03 18:55:43;;;;;;;12.83;11.43;;;13.70;99.90;;;;;;8346468;28;20192;-81
2022/05/03 18:59:44;;;;;;;8.97;8.00;;;13.40;99.90;;;;;;8345811;28;20189;-79
2022/05/03 19:03:45;;;;;;;6.43;5.73;;;13.30;99.90;;;;;;8360565;28;20183;-80
2022/05/03 19:07:46;;;;;;;6.13;5.53;;;13.20;99.90;;;;;;8351723;28;20235;-79
2022/05/03 19:11:47;;;;;;;5.57;5.07;;;13.20;99.90;;;;;;8356261;28;20276;-79
2022/05/03 19:15:48;;;;;;;5.60;4.83;;;13.10;99.90;;;;;;8362202;28;20189;-80
2022/05/03 19:19:49;;;;;;;5.70;4.67;;;13.10;99.90;;;;;;8355847;28;20667;-79
2022/05/03 19:32:29;;;;;;;8.53;6.50;;;12.80;99.90;;;;;;8367415;28;20201;-80
2022/05/03 19:36:30;;;;;;;7.57;5.97;;;12.80;99.90;;;;;;8352056;28;20189;-79
2022/05/03 19:40:31;;;;;;;7.87;6.17;;;12.80;99.90;;;;;;8350104;28;20204;-80
2022/05/03 19:44:32;;;;;;;9.07;6.60;;;12.80;99.90;;;;;;8356312;28;20213;-80
2022/05/03 19:48:33;;;;;;;8.60;6.60;;;12.80;1.00;;;;;;8364458;28;20180;-79
2022/05/03 19:52:34;;;;;;;7.77;6.07;;;12.80;1.00;;;;;;8361286;28;20184;-80
2022/05/03 19:56:38;;;;;;;7.27;6.03;;;12.70;1.00;;;;;;8352647;28;20277;-82
2022/05/03 20:00:40;;;;;;;6.63;5.33;;;12.60;1.00;;;;;;8351178;28;20213;-81
2022/05/03 20:04:41;;;;;;;6.77;6.03;;;12.50;1.00;;;;;;8345588;28;20277;-81
2022/05/03 20:08:42;;;;;;;7.77;6.23;;;12.50;1.00;;;;;;8341061;28;20180;-80
2022/05/03 20:12:43;;;;;;;8.93;5.83;;;12.50;1.00;;;;;;8343651;28;20197;-80
2022/05/03 20:16:45;;;;;;;6.77;5.93;;;12.50;1.00;;;;;;8357662;28;20185;-79
2022/05/03 20:20:46;;;;;;;7.77;6.27;;;12.40;1.00;;;;;;8349364;28;20246;-78
2022/05/03 20:24:47;;;;;;;10.40;7.57;;;12.40;1.00;;;;;;8347485;28;20529;-80
2022/05/03 20:28:48;;;;;;;17.83;10.77;;;12.40;99.90;;;;;;8348521;28;20250;-79
2022/05/03 20:32:49;;;;;;;13.30;8.93;;;12.50;99.90;;;;;;8347939;28;20276;-79
2022/05/03 20:36:50;;;;;;;13.77;8.83;;;12.50;1.00;;;;;;8354882;28;20187;-79
2022/05/03 20:40:51;;;;;;;11.83;8.70;;;12.30;1.00;;;;;;8361732;28;20276;-80
2022/05/03 20:44:53;;;;;;;11.30;8.37;;;12.20;1.00;;;;;;8358418;28;20191;-78
2022/05/03 20:49:01;;;;;;;10.13;8.20;;;12.10;1.00;;;;;;8366701;28;20190;-81
2022/05/03 20:53:03;;;;;;;9.00;7.77;;;12.10;1.00;;;;;;8356530;28;20183;-79
2022/05/03 20:57:04;;;;;;;8.30;6.80;;;12.00;27.60;;;;;;8348658;28;20330;-78
2022/05/03 21:05:26;;;;;;;9.03;6.90;;;11.80;99.90;;;;;;8375432;28;20241;-79
2022/05/03 21:09:27;;;;;;;12.53;7.17;;;11.70;99.90;;;;;;8355289;28;20180;-80
2022/05/03 21:13:28;;;;;;;11.63;6.70;;;11.60;99.90;;;;;;8358931;28;20183;-78
2022/05/03 21:17:29;;;;;;;10.03;7.00;;;11.50;99.90;;;;;;8376887;28;20203;-79
2022/05/03 21:21:30;;;;;;;8.77;6.70;;;11.40;99.90;;;;;;8355051;28;20453;-78
2022/05/03 21:25:31;;;;;;;11.13;7.90;;;11.30;99.90;;;;;;8368647;28;20179;-78
2022/05/03 21:29:37;;;;;;;11.63;8.07;;;11.20;99.90;;;;;;8370797;28;20178;-79
2022/05/03 21:33:38;;;;;;;17.07;10.47;;;11.20;99.90;;;;;;8362298;28;20191;-78
2022/05/03 21:37:40;;;;;;;48.93;25.20;;;11.20;99.90;;;;;;8381171;28;20181;-79
2022/05/03 21:41:41;;;;;;;37.17;21.07;;;11.10;99.90;;;;;;8354604;28;20293;-78
2022/05/03 21:45:42;;;;;;;25.97;15.43;;;11.10;99.90;;;;;;8370097;28;20178;-79
2022/05/03 21:49:43;;;;;;;16.23;11.27;;;11.10;99.90;;;;;;8368761;28;20242;-79
2022/05/03 21:53:44;;;;;;;9.80;7.13;;;11.10;65.80;;;;;;8365380;28;20189;-80
2022/05/03 21:57:45;;;;;;;8.90;7.03;;;11.10;21.20;;;;;;8368803;28;20216;-78
2022/05/03 22:01:46;;;;;;;8.67;6.87;;;11.10;9.40;;;;;;8365774;28;20209;-79
2022/05/03 22:05:47;;;;;;;8.53;6.37;;;11.00;42.50;;;;;;8362594;28;20196;-78
2022/05/03 22:09:48;;;;;;;12.23;8.63;;;10.90;99.90;;;;;;8381228;28;20184;-79
2022/05/03 22:13:49;;;;;;;15.97;9.90;;;10.80;99.90;;;;;;8384868;28;20189;-78
2022/05/03 22:17:50;;;;;;;14.50;9.40;;;10.70;99.90;;;;;;8380779;28;20185;-78
2022/05/03 22:21:52;;;;;;;12.90;9.33;;;10.60;99.90;;;;;;8367041;28;20235;-79
2022/05/03 22:25:53;;;;;;;12.63;8.87;;;10.50;99.90;;;;;;8367967;28;20210;-81
2022/05/03 22:29:53;;;;;;;12.27;8.70;;;10.40;99.90;;;;;;8364401;28;20189;-79